createdAt,value
2018-09-29T00:02:10.744Z,13.50
2018-09-29T00:04:38.308Z,13.60
2018-09-29T00:07:06.604Z,13.70
2018-09-29T00:09:34.160Z,13.70
2018-09-29T00:12:01.725Z,13.70
2018-09-29T00:14:29.286Z,13.80
2018-09-29T00:16:57.185Z,13.80
2018-09-29T00:19:25.717Z,13.70
2018-09-29T00:21:53.256Z,13.50
2018-09-29T00:24:21.608Z,13.70
2018-09-29T00:26:49.140Z,13.60
2018-09-29T00:29:16.677Z,13.70
2018-09-29T00:31:44.249Z,13.80
2018-09-29T00:34:12.750Z,13.80
2018-09-29T00:36:40.312Z,13.80
2018-09-29T00:39:07.883Z,13.90
2018-09-29T00:41:35.417Z,13.90
2018-09-29T00:44:04.946Z,13.90
2018-09-29T00:46:32.521Z,14.00
2018-09-29T00:49:00.093Z,14.00
2018-09-29T00:51:27.627Z,13.90
2018-09-29T00:53:56.898Z,13.90
2018-09-29T00:56:24.461Z,13.90
2018-09-29T00:58:52.000Z,14.00
2018-09-29T01:01:19.579Z,14.10
2018-09-29T01:03:47.108Z,14.10
2018-09-29T01:06:14.704Z,14.10
2018-09-29T01:08:43.205Z,14.10
2018-09-29T01:11:10.777Z,14.20
2018-09-29T01:13:38.341Z,14.20
2018-09-29T01:16:05.913Z,14.20
2018-09-29T01:18:33.449Z,14.10
2018-09-29T01:21:01.025Z,14.00
2018-09-29T01:23:28.558Z,13.90
2018-09-29T01:25:56.093Z,13.80
2018-09-29T01:28:23.666Z,14.00
2018-09-29T01:30:51.241Z,14.00
2018-09-29T01:33:18.809Z,14.00
2018-09-29T01:35:46.347Z,13.80
2018-09-29T01:38:15.857Z,13.80
2018-09-29T01:40:43.459Z,13.80
2018-09-29T01:43:11.054Z,13.80
2018-09-29T01:45:38.605Z,13.80
2018-09-29T01:48:06.184Z,13.80
2018-09-29T01:50:33.753Z,13.70
2018-09-29T01:53:01.297Z,13.70
2018-09-29T01:55:28.873Z,13.60
2018-09-29T01:57:56.527Z,13.50
2018-09-29T02:00:24.069Z,13.40
2018-09-29T02:02:53.568Z,13.30
2018-09-29T02:05:21.109Z,13.40
2018-09-29T02:07:49.505Z,13.40
2018-09-29T02:10:17.010Z,13.40
2018-09-29T02:12:44.597Z,13.30
2018-09-29T02:15:13.133Z,13.40
2018-09-29T02:17:40.672Z,13.30
2018-09-29T02:20:09.106Z,13.30
2018-09-29T02:22:36.674Z,13.20
2018-09-29T02:25:05.014Z,13.10
2018-09-29T02:27:32.550Z,13.10
2018-09-29T02:30:00.114Z,13.10
2018-09-29T02:32:27.690Z,13.00
2018-09-29T02:34:55.231Z,13.00
2018-09-29T02:37:22.806Z,12.90
2018-09-29T02:39:50.350Z,12.90
2018-09-29T02:42:17.921Z,12.90
2018-09-29T02:44:45.462Z,12.90
2018-09-29T02:47:13.038Z,12.80
2018-09-29T02:49:40.574Z,12.60
2018-09-29T02:52:08.158Z,12.60
2018-09-29T02:54:35.738Z,12.60
2018-09-29T02:57:05.019Z,12.60
2018-09-29T02:59:35.320Z,12.60
2018-09-29T03:02:02.897Z,12.60
2018-09-29T03:04:31.398Z,12.60
2018-09-29T03:06:59.035Z,12.60
2018-09-29T03:09:26.545Z,12.60
2018-09-29T03:11:54.113Z,12.50
2018-09-29T03:14:21.655Z,12.60
2018-09-29T03:16:50.231Z,12.60
2018-09-29T03:19:18.826Z,12.60
2018-09-29T03:21:46.350Z,12.50
2018-09-29T03:24:15.849Z,12.50
2018-09-29T03:26:43.389Z,12.50
2018-09-29T03:29:13.661Z,12.30
2018-09-29T03:31:41.318Z,12.30
2018-09-29T03:34:08.806Z,12.30
2018-09-29T03:36:36.377Z,12.20
2018-09-29T03:39:03.950Z,12.20
2018-09-29T03:41:31.502Z,12.20
2018-09-29T03:43:59.834Z,12.20
2018-09-29T03:46:27.369Z,12.20
2018-09-29T03:48:54.946Z,12.20
2018-09-29T03:51:22.481Z,12.10
2018-09-29T03:53:50.057Z,12.00
2018-09-29T03:56:18.570Z,12.00
2018-09-29T03:58:46.110Z,11.90
2018-09-29T04:01:13.683Z,11.90
2018-09-29T04:03:41.222Z,11.80
2018-09-29T04:06:08.811Z,11.80
2018-09-29T04:08:37.150Z,11.70
2018-09-29T04:11:04.686Z,11.70
2018-09-29T04:13:32.258Z,11.70
2018-09-29T04:16:00.741Z,11.70
2018-09-29T04:18:28.314Z,11.60
2018-09-29T04:20:55.856Z,11.50
2018-09-29T04:23:23.434Z,11.60
2018-09-29T04:25:50.971Z,11.60
2018-09-29T04:28:18.510Z,11.60
2018-09-29T04:30:46.081Z,11.60
2018-09-29T04:33:13.626Z,11.60
2018-09-29T04:35:41.198Z,11.50
2018-09-29T04:38:08.770Z,11.50
2018-09-29T04:40:37.266Z,11.50
2018-09-29T04:43:04.847Z,11.50
2018-09-29T04:45:32.431Z,11.50
2018-09-29T04:48:00.016Z,11.50
2018-09-29T04:50:27.554Z,11.40
2018-09-29T04:52:55.122Z,11.40
2018-09-29T04:55:22.689Z,11.40
2018-09-29T04:57:50.262Z,11.40
2018-09-29T05:00:17.797Z,11.40
2018-09-29T05:02:45.365Z,11.50
2018-09-29T05:05:12.934Z,11.50
2018-09-29T05:07:40.469Z,11.50
2018-09-29T05:10:08.836Z,11.50
2018-09-29T05:12:36.378Z,11.50
2018-09-29T05:15:03.947Z,11.60
2018-09-29T05:17:32.449Z,11.60
2018-09-29T05:20:00.017Z,11.60
2018-09-29T05:22:28.514Z,11.60
2018-09-29T05:24:56.857Z,11.50
2018-09-29T05:27:24.403Z,11.50
2018-09-29T05:29:51.969Z,11.40
2018-09-29T05:32:19.511Z,11.50
2018-09-29T05:34:47.086Z,11.40
2018-09-29T05:37:14.630Z,11.40
2018-09-29T05:39:42.224Z,11.30
2018-09-29T05:42:09.760Z,11.30
2018-09-29T05:44:37.326Z,11.30
2018-09-29T05:47:04.862Z,11.20
2018-09-29T05:49:32.421Z,11.20
2018-09-29T05:51:59.955Z,11.20
2018-09-29T05:54:27.539Z,11.20
2018-09-29T05:56:55.071Z,11.20
2018-09-29T05:59:22.636Z,11.10
2018-09-29T06:01:50.171Z,11.10
2018-09-29T06:04:19.671Z,11.10
2018-09-29T06:06:47.223Z,11.10
2018-09-29T06:09:14.774Z,11.10
2018-09-29T06:11:44.066Z,11.10
2018-09-29T06:14:13.313Z,11.20
2018-09-29T06:16:40.886Z,11.20
2018-09-29T06:19:09.443Z,11.30
2018-09-29T06:21:36.983Z,11.40
2018-09-29T06:24:04.556Z,11.40
2018-09-29T06:26:32.133Z,11.30
2018-09-29T06:28:59.699Z,11.30
2018-09-29T06:31:27.263Z,11.40
2018-09-29T06:33:54.847Z,11.40
2018-09-29T06:36:23.161Z,11.40
2018-09-29T06:38:52.691Z,11.40
2018-09-29T06:41:20.273Z,11.50
2018-09-29T06:43:47.861Z,11.50
2018-09-29T06:46:15.397Z,11.60
2018-09-29T06:48:43.698Z,11.90
2018-09-29T06:51:11.264Z,11.90
2018-09-29T06:53:38.845Z,12.20
2018-09-29T06:56:06.418Z,12.20
2018-09-29T06:58:33.990Z,12.30
2018-09-29T07:01:02.554Z,12.30
2018-09-29T07:03:30.081Z,12.40
2018-09-29T07:05:57.649Z,12.30
2018-09-29T07:08:25.185Z,12.30
2018-09-29T07:10:52.752Z,12.20
2018-09-29T07:13:21.253Z,12.20
2018-09-29T07:15:48.827Z,12.30
2018-09-29T07:18:16.367Z,12.40
2018-09-29T07:20:43.933Z,12.50
2018-09-29T07:23:11.668Z,12.50
2018-09-29T07:25:39.328Z,12.50
2018-09-29T07:28:06.797Z,12.60
2018-09-29T07:30:34.377Z,12.60
2018-09-29T07:33:01.911Z,12.60
2018-09-29T07:35:29.486Z,12.70
2018-09-29T07:37:57.028Z,12.70
2018-09-29T07:40:24.595Z,12.80
2018-09-29T07:42:52.143Z,12.90
2018-09-29T07:45:19.714Z,12.90
2018-09-29T07:47:47.281Z,13.00
2018-09-29T07:50:14.818Z,13.10
2018-09-29T07:52:42.410Z,13.20
2018-09-29T07:55:09.982Z,13.30
2018-09-29T07:57:38.285Z,13.60
2018-09-29T08:00:05.873Z,13.60
2018-09-29T08:02:33.437Z,13.50
2018-09-29T08:05:01.013Z,13.50
2018-09-29T08:07:28.557Z,13.70
2018-09-29T08:09:56.094Z,13.80
2018-09-29T08:12:24.674Z,14.00
2018-09-29T08:14:53.171Z,14.00
2018-09-29T08:17:20.741Z,14.20
2018-09-29T08:19:48.351Z,14.20
2018-09-29T08:22:15.911Z,14.10
2018-09-29T08:24:44.428Z,14.20
2018-09-29T08:27:11.993Z,14.30
2018-09-29T08:29:39.541Z,14.20
2018-09-29T08:32:07.110Z,14.10
2018-09-29T08:34:34.658Z,14.40
2018-09-29T08:37:03.221Z,14.60
2018-09-29T08:39:30.762Z,14.50
2018-09-29T08:41:58.330Z,14.50
2018-09-29T08:44:25.861Z,14.90
2018-09-29T08:46:53.439Z,15.00
2018-09-29T08:49:21.020Z,15.00
2018-09-29T08:51:49.522Z,15.00
2018-09-29T08:54:18.102Z,15.10
2018-09-29T08:56:45.702Z,15.10
2018-09-29T08:59:13.269Z,15.30
2018-09-29T09:01:40.802Z,15.40
2018-09-29T09:04:08.510Z,15.50
2018-09-29T09:06:35.971Z,15.60
2018-09-29T09:09:03.569Z,15.70
2018-09-29T09:11:31.102Z,15.60
2018-09-29T09:13:58.667Z,15.70
2018-09-29T09:16:26.237Z,15.70
2018-09-29T09:18:53.807Z,15.90
2018-09-29T09:21:21.341Z,16.10
2018-09-29T09:23:48.912Z,16.20
2018-09-29T09:26:16.641Z,16.20
2018-09-29T09:28:44.202Z,16.30
2018-09-29T09:31:11.738Z,16.50
2018-09-29T09:33:41.238Z,16.40
2018-09-29T09:36:08.982Z,16.50
2018-09-29T09:38:36.549Z,16.50
2018-09-29T09:41:04.114Z,16.70
2018-09-29T09:43:33.676Z,16.90
2018-09-29T09:46:01.216Z,16.70
2018-09-29T09:48:29.578Z,16.60
2018-09-29T09:50:57.952Z,16.40
2018-09-29T09:53:25.525Z,16.40
2018-09-29T09:55:53.075Z,16.60
2018-09-29T09:58:21.417Z,16.70
2018-09-29T10:00:48.981Z,16.70
2018-09-29T10:03:17.518Z,17.10
2018-09-29T10:05:46.007Z,17.30
2018-09-29T10:08:14.534Z,17.30
2018-09-29T10:10:43.030Z,17.40
2018-09-29T10:13:10.598Z,17.40
2018-09-29T10:15:38.901Z,17.30
2018-09-29T10:18:06.471Z,17.30
2018-09-29T10:20:34.068Z,17.40
2018-09-29T10:23:01.635Z,17.70
2018-09-29T10:25:29.939Z,17.90
2018-09-29T10:27:57.510Z,17.90
2018-09-29T10:30:25.077Z,18.00
2018-09-29T10:32:52.646Z,17.70
2018-09-29T10:35:20.195Z,17.60
2018-09-29T10:37:47.758Z,17.70
2018-09-29T10:40:15.325Z,18.00
2018-09-29T10:42:42.897Z,18.10
2018-09-29T10:45:11.399Z,18.20
2018-09-29T10:47:38.965Z,18.40
2018-09-29T10:50:06.532Z,18.50
2018-09-29T10:52:34.084Z,18.60
2018-09-29T10:55:01.650Z,18.60
2018-09-29T10:57:29.226Z,18.50
2018-09-29T10:59:56.831Z,18.30
2018-09-29T11:02:25.159Z,18.70
2018-09-29T11:04:52.771Z,18.70
2018-09-29T11:07:22.304Z,19.00
2018-09-29T11:09:49.900Z,19.10
2018-09-29T11:12:17.444Z,19.10
2018-09-29T11:14:45.018Z,19.40
2018-09-29T11:17:12.546Z,19.70
2018-09-29T11:19:40.111Z,19.90
2018-09-29T11:22:07.659Z,20.00
2018-09-29T11:24:35.279Z,20.20
2018-09-29T11:27:02.828Z,20.40
2018-09-29T11:29:31.181Z,20.20
2018-09-29T11:31:58.725Z,20.10
2018-09-29T11:34:27.230Z,20.10
2018-09-29T11:36:55.788Z,20.50
2018-09-29T11:39:23.390Z,20.50
2018-09-29T11:41:50.924Z,20.40
2018-09-29T11:44:18.495Z,20.30
2018-09-29T11:46:46.033Z,20.50
2018-09-29T11:49:13.597Z,20.30
2018-09-29T11:51:41.182Z,20.30
2018-09-29T11:54:08.765Z,20.70
2018-09-29T11:56:36.305Z,21.00
2018-09-29T11:59:03.878Z,20.90
2018-09-29T12:01:31.449Z,21.10
2018-09-29T12:03:59.103Z,21.00
2018-09-29T12:06:26.881Z,20.70
2018-09-29T12:08:54.729Z,20.90
2018-09-29T12:11:22.318Z,20.80
2018-09-29T12:13:49.922Z,20.60
2018-09-29T12:16:17.448Z,20.60
2018-09-29T12:18:45.058Z,20.90
2018-09-29T12:21:12.643Z,21.00
2018-09-29T12:23:40.473Z,21.00
2018-09-29T12:26:08.018Z,20.70
2018-09-29T12:28:35.620Z,20.70
2018-09-29T12:31:03.215Z,21.00
2018-09-29T12:33:31.549Z,21.10
2018-09-29T12:35:59.087Z,21.10
2018-09-29T12:38:26.666Z,21.10
2018-09-29T12:40:54.241Z,21.40
2018-09-29T12:43:21.779Z,21.40
2018-09-29T12:45:49.358Z,21.30
2018-09-29T12:48:17.694Z,21.40
2018-09-29T12:50:45.234Z,21.40
2018-09-29T12:53:12.801Z,21.40
2018-09-29T12:55:40.367Z,21.40
2018-09-29T12:58:07.938Z,21.90
2018-09-29T13:00:35.487Z,22.00
2018-09-29T13:03:03.060Z,21.50
2018-09-29T13:05:30.627Z,21.40
2018-09-29T13:07:58.196Z,21.10
2018-09-29T13:10:25.745Z,21.10
2018-09-29T13:12:55.263Z,21.30
2018-09-29T13:15:22.839Z,21.20
2018-09-29T13:17:50.405Z,21.20
2018-09-29T13:20:18.916Z,22.00
2018-09-29T13:22:46.528Z,22.20
2018-09-29T13:25:14.078Z,22.20
2018-09-29T13:27:41.646Z,22.40
2018-09-29T13:30:09.190Z,22.10
2018-09-29T13:32:37.522Z,22.10
2018-09-29T13:35:05.081Z,22.10
2018-09-29T13:37:32.627Z,22.20
2018-09-29T13:40:00.193Z,22.10
2018-09-29T13:42:27.766Z,22.10
2018-09-29T13:44:55.338Z,21.70
2018-09-29T13:47:23.848Z,21.60
2018-09-29T13:49:51.429Z,21.10
2018-09-29T13:52:19.009Z,21.40
2018-09-29T13:54:46.573Z,21.80
2018-09-29T13:57:14.107Z,21.80
2018-09-29T13:59:41.669Z,22.20
2018-09-29T14:02:09.238Z,22.60
2018-09-29T14:04:36.810Z,22.30
2018-09-29T14:07:04.351Z,22.10
2018-09-29T14:09:31.892Z,22.00
2018-09-29T14:11:59.490Z,21.90
2018-09-29T14:14:27.813Z,21.70
2018-09-29T14:16:55.396Z,21.60
2018-09-29T14:19:23.017Z,22.10
2018-09-29T14:21:50.597Z,22.40
2018-09-29T14:24:19.260Z,22.50
2018-09-29T14:26:46.897Z,22.60
2018-09-29T14:29:15.619Z,22.80
2018-09-29T14:31:45.181Z,23.30
2018-09-29T14:34:12.846Z,22.80
2018-09-29T14:36:40.611Z,23.00
2018-09-29T14:39:22.981Z,23.60
2018-09-29T14:42:09.108Z,23.60
2018-09-29T14:44:36.724Z,23.90
2018-09-29T14:47:08.310Z,23.90
2018-09-29T14:49:35.913Z,24.10
2018-09-29T14:52:14.791Z,24.60
2018-09-29T14:57:37.325Z,24.60
2018-09-29T15:00:04.967Z,24.20
2018-09-29T15:02:32.616Z,24.00
2018-09-29T15:05:01.128Z,23.70
2018-09-29T15:07:29.508Z,22.90
2018-09-29T15:09:57.062Z,22.80
2018-09-29T15:12:26.593Z,23.50
2018-09-29T15:14:55.307Z,23.30
2018-09-29T15:17:24.021Z,23.10
2018-09-29T15:19:52.416Z,22.20
2018-09-29T15:22:20.738Z,21.70
2018-09-29T15:24:48.342Z,21.60
2018-09-29T15:29:51.572Z,20.90
2018-09-29T15:32:21.037Z,20.80
2018-09-29T15:34:49.582Z,20.60
2018-09-29T15:37:17.164Z,20.70
2018-09-29T15:39:45.815Z,20.50
2018-09-29T15:42:13.506Z,20.40
2018-09-29T15:44:41.048Z,20.00
2018-09-29T15:47:08.618Z,19.90
2018-09-29T15:49:36.191Z,19.80
2018-09-29T15:52:03.730Z,19.90
2018-09-29T15:54:31.298Z,19.80
2018-09-29T15:56:58.865Z,19.60
2018-09-29T15:59:26.433Z,19.50
2018-09-29T16:01:53.975Z,19.50
2018-09-29T16:04:21.551Z,19.50
2018-09-29T16:06:49.900Z,19.30
2018-09-29T16:09:17.490Z,19.30
2018-09-29T16:11:46.033Z,19.20
2018-09-29T16:14:13.606Z,19.10
2018-09-29T16:16:41.178Z,19.00
2018-09-29T16:19:08.749Z,18.90
2018-09-29T16:21:37.071Z,18.90
2018-09-29T16:24:04.649Z,18.80
2018-09-29T16:26:32.215Z,18.80
2018-09-29T16:28:59.785Z,18.80
2018-09-29T16:31:28.097Z,18.60
2018-09-29T16:33:55.679Z,18.60
2018-09-29T16:36:23.226Z,18.60
2018-09-29T16:38:50.802Z,18.50
2018-09-29T16:41:18.338Z,18.50
2018-09-29T16:43:45.984Z,18.50
2018-09-29T16:46:13.474Z,18.40
2018-09-29T16:48:41.052Z,18.20
2018-09-29T16:51:08.590Z,18.10
2018-09-29T16:53:36.159Z,18.00
2018-09-29T16:56:04.705Z,17.90
2018-09-29T16:58:32.289Z,17.80
2018-09-29T17:00:59.824Z,17.70
2018-09-29T17:03:27.425Z,17.50
2018-09-29T17:05:54.951Z,17.00
2018-09-29T17:08:24.462Z,16.70
2018-09-29T17:10:52.000Z,16.50
2018-09-29T17:13:21.500Z,16.30
2018-09-29T17:15:49.444Z,16.20
2018-09-29T17:18:17.000Z,15.90
2018-09-29T17:20:44.545Z,15.80
2018-09-29T17:23:12.114Z,15.70
2018-09-29T17:25:39.658Z,15.60
2018-09-29T17:28:07.240Z,15.50
2018-09-29T17:30:34.784Z,15.40
2018-09-29T17:33:02.346Z,15.40
2018-09-29T17:35:29.879Z,15.30
2018-09-29T17:37:57.482Z,15.30
2018-09-29T17:40:25.025Z,15.20
2018-09-29T17:42:52.598Z,15.00
2018-09-29T17:45:20.186Z,15.00
2018-09-29T17:47:47.740Z,14.90
2018-09-29T17:50:15.293Z,14.80
2018-09-29T17:52:42.942Z,14.60
2018-09-29T17:55:10.443Z,14.40
2018-09-29T17:57:38.037Z,14.30
2018-09-29T18:00:05.574Z,14.30
2018-09-29T18:02:33.152Z,14.20
2018-09-29T18:05:00.685Z,14.20
2018-09-29T18:07:28.239Z,14.10
2018-09-29T18:09:55.809Z,14.10
2018-09-29T18:12:23.346Z,14.10
2018-09-29T18:14:50.919Z,14.10
2018-09-29T18:17:18.460Z,14.10
2018-09-29T18:19:46.036Z,14.10
2018-09-29T18:22:13.574Z,14.10
2018-09-29T18:24:41.141Z,14.00
2018-09-29T18:27:08.682Z,14.10
2018-09-29T18:29:37.013Z,14.00
2018-09-29T18:32:05.513Z,14.00
2018-09-29T18:34:33.099Z,13.80
2018-09-29T18:37:00.653Z,13.70
2018-09-29T18:39:28.990Z,13.50
2018-09-29T18:41:56.529Z,13.40
2018-09-29T18:44:24.107Z,13.40
2018-09-29T18:46:51.656Z,13.40
2018-09-29T18:49:19.251Z,13.40
2018-09-29T18:51:47.854Z,13.20
2018-09-29T18:54:15.350Z,13.10
2018-09-29T18:56:42.931Z,13.10
2018-09-29T18:59:10.471Z,13.00
2018-09-29T19:01:38.046Z,12.90
2018-09-29T19:04:05.618Z,12.90
2018-09-29T19:06:33.161Z,12.90
2018-09-29T19:09:02.666Z,12.90
2018-09-29T19:11:30.250Z,12.80
2018-09-29T19:13:57.821Z,12.70
2018-09-29T19:16:25.368Z,12.70
2018-09-29T19:18:52.946Z,12.60
2018-09-29T19:21:20.525Z,12.60
2018-09-29T19:23:48.090Z,12.60
2018-09-29T19:26:16.597Z,12.50
2018-09-29T19:28:44.166Z,12.30
2018-09-29T19:31:11.746Z,12.30
2018-09-29T19:33:39.336Z,12.20
2018-09-29T19:36:06.893Z,12.20
2018-09-29T19:38:34.431Z,12.20
2018-09-29T19:41:02.002Z,12.10
2018-09-29T19:43:29.539Z,12.10
2018-09-29T19:45:57.107Z,12.10
2018-09-29T19:48:24.650Z,12.10
2018-09-29T19:50:52.224Z,12.10
2018-09-29T19:53:19.762Z,12.00
2018-09-29T19:55:47.348Z,12.00
2018-09-29T19:58:14.898Z,12.00
2018-09-29T20:00:42.462Z,12.00
2018-09-29T20:03:10.051Z,11.90
2018-09-29T20:05:37.620Z,11.80
2018-09-29T20:08:05.937Z,11.70
2018-09-29T20:10:35.487Z,11.70
2018-09-29T20:13:03.029Z,11.70
2018-09-29T20:15:31.600Z,11.70
2018-09-29T20:17:59.137Z,11.70
2018-09-29T20:20:26.781Z,11.60
2018-09-29T20:22:54.326Z,11.60
2018-09-29T20:25:22.892Z,11.60
2018-09-29T20:27:52.425Z,11.50
2018-09-29T20:30:19.974Z,11.40
2018-09-29T20:32:47.547Z,11.30
2018-09-29T20:35:15.126Z,11.30
2018-09-29T20:37:42.706Z,11.30
2018-09-29T20:40:10.253Z,11.30
2018-09-29T20:42:38.793Z,11.30
2018-09-29T20:45:06.373Z,11.30
2018-09-29T20:47:33.922Z,11.20
2018-09-29T20:50:01.503Z,11.20
2018-09-29T20:52:29.074Z,11.20
2018-09-29T20:54:56.651Z,11.00
2018-09-29T20:57:24.205Z,10.90
2018-09-29T20:59:51.778Z,10.90
2018-09-29T21:02:20.121Z,11.00
2018-09-29T21:04:47.666Z,11.00
2018-09-29T21:07:15.234Z,10.90
2018-09-29T21:09:42.769Z,11.10
2018-09-29T21:12:12.290Z,11.20
2018-09-29T21:14:39.833Z,11.20
2018-09-29T21:17:08.393Z,11.20
2018-09-29T21:19:35.926Z,11.30
2018-09-29T21:22:03.470Z,11.30
2018-09-29T21:24:31.805Z,11.20
2018-09-29T21:26:59.381Z,11.20
2018-09-29T21:29:26.961Z,11.00
2018-09-29T21:31:54.515Z,11.00
2018-09-29T21:34:24.806Z,10.70
2018-09-29T21:36:52.399Z,10.70
2018-09-29T21:39:19.987Z,10.70
2018-09-29T21:41:47.521Z,10.60
2018-09-29T21:44:15.108Z,10.70
2018-09-29T21:46:42.685Z,10.60
2018-09-29T21:49:10.261Z,10.60
2018-09-29T21:51:37.801Z,10.60
2018-09-29T21:54:05.366Z,10.50
2018-09-29T21:56:32.952Z,10.40
2018-09-29T21:59:00.535Z,10.30
2018-09-29T22:01:29.058Z,10.30
2018-09-29T22:03:56.661Z,10.30
2018-09-29T22:06:25.003Z,10.20
2018-09-29T22:08:52.591Z,10.20
2018-09-29T22:11:20.133Z,10.20
2018-09-29T22:13:47.681Z,10.20
2018-09-29T22:16:15.263Z,10.20
2018-09-29T22:18:42.802Z,10.10
2018-09-29T22:21:11.407Z,10.10
2018-09-29T22:23:38.877Z,10.10
2018-09-29T22:26:06.456Z,10.10
2018-09-29T22:28:34.007Z,10.00
2018-09-29T22:31:02.559Z,10.00
2018-09-29T22:33:30.105Z,10.00
2018-09-29T22:35:58.409Z,9.70
2018-09-29T22:38:25.986Z,9.70
2018-09-29T22:40:53.555Z,9.70
2018-09-29T22:43:23.081Z,9.60
2018-09-29T22:45:50.629Z,9.70
2018-09-29T22:48:18.201Z,9.70
2018-09-29T22:50:45.779Z,9.60
2018-09-29T22:53:13.361Z,9.60
2018-09-29T22:55:40.937Z,9.60
2018-09-29T22:58:09.509Z,9.50
2018-09-29T23:00:38.034Z,9.50
2018-09-29T23:03:05.608Z,9.40
2018-09-29T23:05:33.146Z,9.40
2018-09-29T23:08:00.711Z,9.50
2018-09-29T23:10:28.250Z,9.50
2018-09-29T23:12:55.815Z,9.40
2018-09-29T23:15:23.350Z,9.40
2018-09-29T23:17:50.913Z,9.50
2018-09-29T23:20:18.457Z,9.40
2018-09-29T23:22:46.037Z,9.40
2018-09-29T23:25:13.586Z,9.20
2018-09-29T23:27:41.921Z,9.20
2018-09-29T23:30:09.479Z,9.20
2018-09-29T23:32:37.042Z,9.30
2018-09-29T23:35:04.621Z,9.30
2018-09-29T23:37:32.202Z,9.30
2018-09-29T23:39:59.755Z,9.30
2018-09-29T23:42:27.294Z,9.20
2018-09-29T23:44:54.871Z,9.20
2018-09-29T23:47:22.464Z,9.30
2018-09-29T23:49:50.047Z,9.20
2018-09-29T23:52:17.582Z,9.20
2018-09-29T23:54:47.111Z,9.20
2018-09-29T23:57:14.680Z,9.20
2018-09-29T23:59:42.251Z,9.10
